Time;durP1;ratioP1;P1;durP2;ratioP2;P2;SDS_P1;SDS_P2;PMS_P1;PMS_P2;Temp;Humidity;BMP_temperature;BMP_pressure;BME280_temperature;BME280_humidity;BME280_pressure;Samples;Min_cycle;Max_cycle;Signal;HPM_P1;HPM_P2
2022/08/21 00:01:40;;;;;;;;;10.00;9.40;;;;;17.24;64.81;100004.78;5074958;28;8852;-62
2022/08/21 00:04:08;;;;;;;;;9.00;7.80;;;;;17.24;64.73;100004.78;5075121;28;8906;-63
2022/08/21 00:06:36;;;;;;;;;9.40;9.40;;;;;17.24;64.28;100009.34;5074755;28;8831;-63
2022/08/21 00:09:04;;;;;;;;;13.20;12.40;;;;;17.23;64.30;100000.41;5074896;28;8841;-62
2022/08/21 00:11:33;;;;;;;;;12.00;11.60;;;;;17.21;64.09;100001.56;5094219;28;8860;-62
2022/08/21 00:14:00;;;;;;;;;16.80;15.20;;;;;17.19;64.71;99998.19;5095179;28;8869;-62
2022/08/21 00:16:28;;;;;;;;;10.25;9.50;;;;;17.16;64.54;99995.84;5095339;28;8876;-63
2022/08/21 00:18:56;;;;;;;;;10.00;10.00;;;;;17.13;64.76;100002.41;5094501;28;8856;-62
2022/08/21 00:21:24;;;;;;;;;13.00;12.25;;;;;17.10;64.71;99996.50;5095186;28;8964;-62
2022/08/21 00:23:52;;;;;;;;;13.80;13.80;;;;;17.09;64.48;99992.94;5094911;28;8830;-63
2022/08/21 00:26:20;;;;;;;;;7.80;7.80;;;;;17.07;64.81;99981.50;5095160;28;8956;-63
2022/08/21 00:28:48;;;;;;;;;12.50;10.00;;;;;17.04;64.96;99989.91;5095280;28;8932;-62
2022/08/21 00:31:16;;;;;;;;;9.00;9.00;;;;;17.01;64.36;99982.16;5097870;28;8830;-63
2022/08/21 00:33:44;;;;;;;;;13.00;13.00;;;;;16.99;64.98;99980.63;5098114;28;8992;-62
2022/08/21 00:36:11;;;;;;;;;13.50;12.00;;;;;16.96;64.52;99973.75;5097435;28;8850;-63
2022/08/21 00:38:39;;;;;;;;;12.75;12.00;;;;;16.96;64.76;99975.56;5098306;28;8845;-63
2022/08/21 00:41:07;;;;;;;;;13.40;13.40;;;;;16.94;64.73;99983.78;5099083;28;8856;-63
2022/08/21 00:43:55;;;;;;;;;19.50;17.00;;;;;16.93;64.64;99979.41;5098192;28;8827;-63
2022/08/21 00:46:23;;;;;;;;;15.00;12.80;;;;;16.93;65.07;99979.41;5098265;28;8964;-62
2022/08/21 00:48:55;;;;;;;;;9.25;7.50;;;;;16.93;64.64;99982.13;5098554;28;8849;-62
2022/08/21 00:51:25;;;;;;;;;13.50;13.00;;;;;16.95;64.92;99976.59;5098473;28;8844;-62
2022/08/21 00:53:53;;;;;;;;;15.50;13.50;;;;;16.96;65.30;99984.50;5097998;28;8838;-63
2022/08/21 00:56:21;;;;;;;;;15.25;13.00;;;;;16.96;65.11;99975.56;5098093;28;8857;-63
2022/08/21 00:58:49;;;;;;;;;7.60;7.20;;;;;16.95;64.64;99976.59;5095955;28;8861;-63
2022/08/21 01:01:21;;;;;;;;;9.60;9.60;;;;;16.93;64.81;99973.22;5096821;28;8822;-62
2022/08/21 01:03:49;;;;;;;;;8.40;7.00;;;;;16.89;64.79;99978.06;5098338;28;8879;-61
2022/08/21 01:06:17;;;;;;;;;12.25;9.75;;;;;16.87;64.70;99973.84;5098208;28;8846;-62
2022/08/21 01:08:45;;;;;;;;;8.80;8.60;;;;;16.83;65.50;99972.47;5098274;28;8837;-62
2022/08/21 01:11:13;;;;;;;;;12.75;11.50;;;;;16.74;65.64;99971.63;5098236;28;8838;-62
2022/08/21 01:13:45;;;;;;;;;9.75;9.00;;;;;16.65;65.97;99969.84;5098402;28;8850;-62
2022/08/21 01:16:13;;;;;;;;;11.00;10.00;;;;;16.57;65.48;99972.50;5097775;28;8830;-62
2022/08/21 01:18:41;;;;;;;;;14.50;13.00;;;;;16.49;65.60;99968.94;5097720;28;8842;-62
2022/08/21 01:21:09;;;;;;;;;12.00;10.00;;;;;16.42;66.02;99973.25;5098183;28;8856;-62
2022/08/21 01:23:39;;;;;;;;;12.50;12.00;;;;;16.39;65.87;99971.72;5097967;28;8968;-62
2022/08/21 01:26:07;;;;;;;;;17.00;15.00;;;;;16.38;66.03;99973.75;5097535;28;8944;-62
2022/08/21 01:28:35;;;;;;;;;12.50;12.50;;;;;16.34;65.91;99963.25;5095421;28;9475;-62
2022/08/21 01:31:02;;;;;;;;;11.00;11.00;;;;;16.32;66.49;99965.25;5097811;28;9641;-63
2022/08/21 01:33:30;;;;;;;;;12.75;12.75;;;;;16.33;66.26;99960.75;5083262;28;8983;-62
2022/08/21 01:35:58;;;;;;;;;13.00;12.00;;;;;16.34;65.58;99962.44;5076517;28;8832;-62
2022/08/21 01:38:26;;;;;;;;;14.00;14.00;;;;;16.39;66.17;99963.66;5077002;28;8840;-61
2022/08/21 01:40:55;;;;;;;;;17.75;16.00;;;;;16.46;65.43;99969.25;5077282;28;9541;-63
2022/08/21 01:43:23;;;;;;;;;12.50;11.50;;;;;16.54;65.30;99972.84;5076514;28;9680;-62
2022/08/21 01:46:05;;;;;;;;;11.75;11.75;;;;;16.61;65.65;99973.03;5076631;28;8836;-62
2022/08/21 01:48:33;;;;;;;;;12.50;12.00;;;;;16.67;65.52;99975.09;5077193;28;8832;-62
2022/08/21 01:51:01;;;;;;;;;7.25;7.25;;;;;16.70;65.27;99975.59;5077276;28;8974;-62
2022/08/21 01:53:29;;;;;;;;;11.00;11.00;;;;;16.74;64.81;99971.63;5077449;28;8982;-62
2022/08/21 01:56:00;;;;;;;;;13.50;13.50;;;;;16.77;65.00;99968.59;5076684;28;8851;-63
2022/08/21 01:58:28;;;;;;;;;10.50;9.00;;;;;16.84;64.99;99969.63;5077698;28;9693;-63
2022/08/21 02:00:55;;;;;;;;;13.50;13.00;;;;;16.88;64.66;99973.69;5077184;28;8844;-62
2022/08/21 02:03:23;;;;;;;;;14.75;12.25;;;;;16.93;64.86;99963.28;5077034;28;8847;-62
2022/08/21 02:06:02;;;;;;;;;12.50;11.25;;;;;16.98;64.95;99969.03;5077060;28;8840;-63
2022/08/21 02:08:29;;;;;;;;;12.25;12.25;;;;;17.01;64.40;99967.88;5076697;28;8966;-62
2022/08/21 02:10:57;;;;;;;;;8.75;8.00;;;;;17.04;64.72;99973.78;5076582;28;9470;-61
2022/08/21 02:13:26;;;;;;;;;13.00;12.00;;;;;17.08;64.46;99960.84;5076598;28;8836;-62
2022/08/21 02:15:53;;;;;;;;;10.50;10.00;;;;;17.12;64.05;99967.56;5077329;28;8840;-62
2022/08/21 02:18:21;;;;;;;;;16.80;13.80;;;;;17.15;64.87;99962.69;5076217;28;8832;-61
2022/08/21 02:20:49;;;;;;;;;13.00;13.00;;;;;17.18;64.33;99966.91;5076610;28;8832;-63
2022/08/21 02:23:22;;;;;;;;;13.00;13.00;;;;;17.19;64.22;99956.00;5076294;28;8852;-62
2022/08/21 02:25:53;;;;;;;;;13.00;12.00;;;;;17.19;64.09;99956.00;5076433;28;8832;-62
2022/08/21 02:28:21;;;;;;;;;11.20;9.60;;;;;17.21;64.38;99945.91;5088976;28;8895;-62
2022/08/21 02:30:49;;;;;;;;;12.60;12.40;;;;;17.24;64.26;99942.88;5096725;28;8948;-63
2022/08/21 02:33:17;;;;;;;;;16.75;15.25;;;;;17.25;64.26;99944.53;5095926;28;8854;-63
2022/08/21 02:35:44;;;;;;;;;11.80;10.80;;;;;17.21;64.55;99956.66;5096411;28;8826;-63
2022/08/21 02:38:12;;;;;;;;;12.60;11.20;;;;;17.17;64.43;99949.91;5096380;28;8850;-63
2022/08/21 02:40:40;;;;;;;;;13.40;13.40;;;;;17.15;64.33;99951.94;5096446;28;9558;-62
2022/08/21 02:43:14;;;;;;;;;12.00;9.75;;;;;17.11;64.71;99953.28;5096506;28;9842;-63
2022/08/21 02:45:42;;;;;;;;;13.80;12.20;;;;;17.09;64.84;99957.97;5096126;28;8903;-62
2022/08/21 02:48:10;;;;;;;;;14.50;12.50;;;;;17.09;65.18;99949.88;5096614;28;8834;-62
2022/08/21 02:50:38;;;;;;;;;13.50;11.50;;;;;17.09;64.92;99951.75;5095546;28;8873;-63
2022/08/21 02:53:06;;;;;;;;;13.00;12.00;;;;;17.09;64.83;99944.50;5096442;28;8976;-62
2022/08/21 02:55:34;;;;;;;;;12.00;11.50;;;;;17.09;65.01;99944.50;5096168;28;9742;-62
2022/08/21 02:58:02;;;;;;;;;13.50;12.50;;;;;17.10;65.14;99940.81;5094145;28;8818;-62
2022/08/21 03:00:30;;;;;;;;;10.00;9.75;;;;;17.10;65.12;99931.91;5095643;28;8848;-62
2022/08/21 03:02:58;;;;;;;;;9.20;7.40;;;;;17.10;64.72;99937.28;5095471;28;8973;-62
2022/08/21 03:05:26;;;;;;;;;13.00;12.00;;;;;17.09;65.21;99938.28;5095632;28;8948;-62
2022/08/21 03:07:53;;;;;;;;;13.00;13.00;;;;;17.05;64.99;99934.22;5096010;28;9549;-62
2022/08/21 03:10:21;;;;;;;;;9.00;9.00;;;;;17.01;64.98;99939.09;5095727;28;8952;-62
2022/08/21 03:12:49;;;;;;;;;13.00;12.75;;;;;16.95;65.44;99931.66;5095606;28;8822;-63
2022/08/21 03:15:17;;;;;;;;;14.00;13.25;;;;;16.89;65.33;99936.88;5095609;28;9009;-62
2022/08/21 03:17:45;;;;;;;;;15.75;14.50;;;;;16.83;65.45;99935.66;5095317;28;8822;-63
2022/08/21 03:20:13;;;;;;;;;14.00;12.50;;;;;16.79;65.67;99941.53;5096153;28;9585;-63
2022/08/21 03:22:41;;;;;;;;;14.50;12.50;;;;;16.71;65.51;99938.81;5095850;28;9278;-64
2022/08/21 03:25:20;;;;;;;;;12.25;11.00;;;;;16.65;65.91;99937.59;5096025;28;8960;-62
2022/08/21 03:28:07;;;;;;;;;12.00;12.00;;;;;16.59;66.32;99942.78;5082622;28;8855;-63
2022/08/21 03:30:39;;;;;;;;;12.75;12.00;;;;;16.53;66.01;99943.41;5075298;28;8870;-62
2022/08/21 03:33:07;;;;;;;;;9.50;9.25;;;;;16.46;65.99;99940.53;5074746;28;8861;-62
2022/08/21 03:35:34;;;;;;;;;16.50;15.50;;;;;16.41;66.39;99940.16;5074902;28;8838;-62
2022/08/21 03:38:02;;;;;;;;;13.50;12.25;;;;;16.33;66.98;99942.75;5075349;28;8884;-62
2022/08/21 03:40:31;;;;;;;;;13.00;12.25;;;;;16.26;66.83;99941.69;5074876;28;8840;-62
2022/08/21 03:42:59;;;;;;;;;9.00;9.00;;;;;16.19;66.77;99942.50;5075471;28;8978;-62
2022/08/21 03:45:27;;;;;;;;;9.50;8.50;;;;;16.13;67.21;99947.63;5075239;28;8854;-63
2022/08/21 03:47:55;;;;;;;;;14.00;14.00;;;;;16.08;66.90;99947.28;5074997;28;8840;-62
2022/08/21 03:50:23;;;;;;;;;11.75;11.75;;;;;16.02;67.30;99937.16;5074920;28;8844;-62
2022/08/21 03:52:51;;;;;;;;;14.50;12.00;;;;;15.96;67.54;99937.78;5075191;28;8824;-62
2022/08/21 03:55:18;;;;;;;;;10.00;9.25;;;;;15.89;67.71;99939.41;5074977;28;8950;-62
2022/08/21 03:57:46;;;;;;;;;10.00;9.25;;;;;15.83;67.65;99943.56;5075856;28;8850;-62
2022/08/21 04:00:14;;;;;;;;;12.00;10.00;;;;;15.77;67.35;99943.34;5074979;28;8844;-63
2022/08/21 04:02:42;;;;;;;;;11.50;11.50;;;;;15.74;67.48;99946.31;5079207;28;8880;-62
2022/08/21 04:05:10;;;;;;;;;15.50;13.25;;;;;15.69;67.71;99951.34;5079123;28;8831;-64
2022/08/21 04:07:38;;;;;;;;;10.50;10.25;;;;;15.64;68.23;99949.06;5078829;28;8835;-62
2022/08/21 04:10:06;;;;;;;;;14.00;14.00;;;;;15.59;67.95;99955.91;5078595;28;8828;-62
2022/08/21 04:12:33;;;;;;;;;13.00;11.50;;;;;15.55;68.46;99957.22;5079247;28;8848;-62
2022/08/21 04:15:01;;;;;;;;;12.00;10.00;;;;;15.53;67.89;99953.84;5078819;28;8832;-62
2022/08/21 04:17:29;;;;;;;;;15.50;15.50;;;;;15.49;68.43;99953.28;5078735;28;8824;-62
2022/08/21 04:19:58;;;;;;;;;15.25;13.25;;;;;15.48;68.06;99950.78;5078378;28;8828;-62
2022/08/21 04:22:26;;;;;;;;;15.00;13.75;;;;;15.44;68.55;99946.69;5078389;28;8863;-62
2022/08/21 04:24:54;;;;;;;;;15.00;13.00;;;;;15.43;68.39;99961.13;5078453;28;8889;-62
2022/08/21 04:27:22;;;;;;;;;13.25;12.50;;;;;15.39;67.99;99959.75;5087353;28;8814;-62
2022/08/21 04:29:49;;;;;;;;;14.50;13.50;;;;;15.40;68.41;99964.13;5099148;28;8880;-62
2022/08/21 04:32:17;;;;;;;;;13.50;13.00;;;;;15.38;68.19;99966.09;5098326;28;8862;-62
2022/08/21 04:34:45;;;;;;;;;14.25;13.00;;;;;15.37;68.24;99964.41;5098630;28;8984;-62
2022/08/21 04:37:15;;;;;;;;;14.25;13.75;;;;;15.36;68.40;99966.25;5097973;28;8858;-62
2022/08/21 04:39:44;;;;;;;;;12.00;10.00;;;;;15.36;68.61;99965.41;5098744;28;8833;-62
2022/08/21 04:42:15;;;;;;;;;13.00;12.75;;;;;15.36;68.12;99971.63;5098384;28;8852;-63
2022/08/21 04:44:43;;;;;;;;;15.75;15.75;;;;;15.34;67.96;99968.25;5098837;28;8854;-62
2022/08/21 04:47:10;;;;;;;;;15.00;14.25;;;;;15.34;68.33;99959.34;5098281;28;8830;-62
2022/08/21 04:49:38;;;;;;;;;13.25;12.00;;;;;15.36;68.00;99962.72;5097703;28;8856;-63
2022/08/21 04:52:06;;;;;;;;;12.50;12.25;;;;;15.35;68.41;99958.34;5097270;28;8859;-62
2022/08/21 04:54:34;;;;;;;;;12.25;10.50;;;;;15.37;68.11;99956.34;5097783;28;8880;-62
2022/08/21 04:57:03;;;;;;;;;11.75;10.25;;;;;15.38;68.00;99958.03;5096227;28;8814;-62
2022/08/21 04:59:30;;;;;;;;;15.00;14.50;;;;;15.41;68.00;99957.75;5097927;28;8853;-61
2022/08/21 05:01:58;;;;;;;;;13.50;13.00;;;;;15.43;68.06;99961.13;5098170;28;8872;-62
2022/08/21 05:04:26;;;;;;;;;18.75;14.00;;;;;15.46;68.07;99972.41;5098078;28;8826;-62
2022/08/21 05:06:53;;;;;;;;;10.25;9.50;;;;;15.49;67.85;99966.72;5097628;28;8975;-62
2022/08/21 05:09:22;;;;;;;;;10.00;10.00;;;;;15.54;67.64;99963.59;5096989;28;8838;-62
2022/08/21 05:11:51;;;;;;;;;9.00;8.50;;;;;15.58;67.81;99959.59;5096837;28;8822;-62
2022/08/21 05:14:19;;;;;;;;;13.00;13.00;;;;;15.64;67.14;99964.34;5096236;28;8833;-62
2022/08/21 05:16:46;;;;;;;;;6.00;6.00;;;;;15.71;67.38;99960.06;5096880;28;8825;-62
2022/08/21 05:19:15;;;;;;;;;16.00;15.00;;;;;15.81;67.02;99966.19;5097189;28;8838;-62
2022/08/21 05:21:43;;;;;;;;;13.50;12.00;;;;;15.90;67.32;99967.94;5098117;28;8834;-62
2022/08/21 05:24:11;;;;;;;;;15.75;14.75;;;;;15.93;66.78;99970.34;5098041;28;9000;-62
2022/08/21 05:26:38;;;;;;;;;12.50;11.50;;;;;16.01;67.17;99968.53;5095366;28;8841;-62
2022/08/21 05:29:12;;;;;;;;;13.25;12.00;;;;;16.11;66.92;99963.09;5097698;28;8899;-63
2022/08/21 05:31:41;;;;;;;;;12.50;11.75;;;;;16.24;66.57;99969.72;5097648;28;8842;-63
2022/08/21 05:34:09;;;;;;;;;14.50;12.00;;;;;16.36;66.49;99969.34;5097837;28;8830;-62
2022/08/21 05:36:36;;;;;;;;;15.75;15.75;;;;;16.44;66.22;99972.09;5097605;28;8836;-62
2022/08/21 05:39:04;;;;;;;;;13.75;11.00;;;;;16.49;65.88;99977.81;5097648;28;9560;-62
2022/08/21 05:41:32;;;;;;;;;12.50;12.25;;;;;16.54;65.90;99970.13;5097852;28;8977;-62
2022/08/21 05:44:00;;;;;;;;;11.50;11.50;;;;;16.63;65.26;99962.97;5097390;28;8837;-63
2022/08/21 05:46:28;;;;;;;;;10.00;10.00;;;;;16.71;65.70;99971.91;5097205;28;8837;-63
2022/08/21 05:48:56;;;;;;;;;16.00;15.00;;;;;16.82;65.65;99966.28;5096558;28;8952;-62
2022/08/21 05:51:24;;;;;;;;;14.50;12.50;;;;;16.94;64.69;99969.50;5095976;28;8833;-62
2022/08/21 05:53:51;;;;;;;;;11.00;11.00;;;;;17.05;65.33;99972.75;5096091;28;8826;-63
2022/08/21 05:56:19;;;;;;;;;17.25;13.50;;;;;17.12;65.33;99965.72;5093340;28;8838;-63
2022/08/21 05:58:47;;;;;;;;;14.50;12.50;;;;;17.20;64.71;99971.13;5075871;28;9494;-62
2022/08/21 06:01:15;;;;;;;;;15.50;14.50;;;;;17.27;64.63;99965.94;5075419;28;8864;-62
2022/08/21 06:03:43;;;;;;;;;12.25;10.50;;;;;17.34;64.65;99962.44;5076548;28;8824;-63
2022/08/21 06:06:11;;;;;;;;;13.00;12.00;;;;;17.44;64.02;99962.28;5076334;28;8836;-63
2022/08/21 06:08:39;;;;;;;;;11.40;11.00;;;;;17.55;63.84;99962.00;5076120;28;8851;-62
2022/08/21 06:11:06;;;;;;;;;12.00;12.00;;;;;17.65;64.35;99960.84;5075813;28;8824;-62
2022/08/21 06:13:34;;;;;;;;;15.20;13.40;;;;;17.73;63.68;99960.84;5076100;28;9516;-63
2022/08/21 06:16:02;;;;;;;;;13.00;10.40;;;;;17.83;63.82;99956.13;5076156;28;8862;-62
2022/08/21 06:18:30;;;;;;;;;17.20;14.60;;;;;17.93;63.64;99964.88;5075444;28;8854;-62
2022/08/21 06:20:57;;;;;;;;;18.20;16.80;;;;;18.01;63.09;99961.38;5075706;28;8866;-62
2022/08/21 06:23:27;;;;;;;;;13.00;13.00;;;;;18.11;63.01;99962.88;5075718;28;8856;-62
2022/08/21 06:25:59;;;;;;;;;10.80;10.80;;;;;18.22;62.72;99954.44;5075759;28;8962;-62
2022/08/21 06:28:28;;;;;;;;;13.80;12.00;;;;;18.31;62.81;99953.47;5096354;28;8818;-62
2022/08/21 06:30:56;;;;;;;;;13.00;12.60;;;;;18.39;62.62;99966.09;5095926;28;8822;-62
2022/08/21 06:33:24;;;;;;;;;16.00;15.00;;;;;18.49;62.95;99956.78;5096333;28;8842;-62
2022/08/21 06:35:59;;;;;;;;;15.80;15.40;;;;;18.66;61.86;99953.03;5095731;28;8838;-63
2022/08/21 06:38:27;;;;;;;;;14.20;13.00;;;;;18.79;62.31;99947.09;5096208;28;8856;-63
2022/08/21 06:40:55;;;;;;;;;12.40;12.40;;;;;18.91;62.30;99951.94;5095495;28;8883;-63
2022/08/21 06:43:24;;;;;;;;;18.60;17.60;;;;;19.06;61.80;99944.78;5095746;28;8862;-63
2022/08/21 06:46:06;;;;;;;;;14.00;12.40;;;;;19.23;61.59;99946.44;5095236;28;8841;-63
2022/08/21 06:48:34;;;;;;;;;15.20;14.40;;;;;19.38;61.40;99939.25;5095310;28;8991;-62
2022/08/21 06:51:02;;;;;;;;;14.00;13.40;;;;;19.50;60.72;99943.22;5096251;28;8887;-62
2022/08/21 06:53:30;;;;;;;;;15.40;14.60;;;;;19.61;60.88;99936.56;5094427;28;8958;-64
2022/08/21 06:55:57;;;;;;;;;13.00;12.00;;;;;19.72;60.58;99937.00;5093949;28;8842;-62
2022/08/21 06:58:25;;;;;;;;;19.40;15.60;;;;;19.86;60.34;99930.81;5090912;28;8830;-63
2022/08/21 07:00:53;;;;;;;;;13.20;13.20;;;;;19.99;60.71;99932.88;5095017;28;8848;-62
2022/08/21 07:03:27;;;;;;;;;9.60;7.40;;;;;20.11;59.98;99940.41;5095846;28;8858;-63
2022/08/21 07:05:54;;;;;;;;;12.20;11.40;;;;;20.25;60.29;99941.50;5095563;28;8849;-63
2022/08/21 07:08:22;;;;;;;;;16.00;13.80;;;;;20.36;59.36;99939.19;5095568;28;8850;-64
2022/08/21 07:10:50;;;;;;;;;12.60;12.60;;;;;20.55;59.67;99938.63;5094676;28;8850;-62
2022/08/21 07:13:18;;;;;;;;;19.40;17.60;;;;;20.73;58.70;99942.66;5094839;28;8869;-63
2022/08/21 07:15:46;;;;;;;;;10.60;10.20;;;;;20.88;59.04;99942.69;5094426;28;8854;-63
2022/08/21 07:18:14;;;;;;;;;18.00;13.80;;;;;21.03;58.66;99947.06;5094474;28;8951;-63
2022/08/21 07:20:42;;;;;;;;;13.40;11.80;;;;;21.18;58.42;99934.34;5094522;28;8919;-63
2022/08/21 07:23:10;;;;;;;;;9.00;9.00;;;;;21.33;58.11;99934.31;5094167;28;8840;-63
2022/08/21 07:25:37;;;;;;;;;14.80;12.80;;;;;21.45;58.34;99930.91;5093998;28;8844;-63
2022/08/21 07:28:05;;;;;;;;;13.20;13.20;;;;;21.54;58.22;99937.03;5093354;28;9629;-64
2022/08/21 07:30:33;;;;;;;;;13.40;12.00;;;;;21.60;57.68;99931.72;5094297;28;8822;-63
2022/08/21 07:33:01;;;;;;;;;12.00;12.00;;;;;21.69;57.48;99937.88;5094419;28;8904;-64
2022/08/21 07:35:30;;;;;;;;;13.40;12.60;;;;;21.72;57.96;99943.75;5094165;28;8992;-63
2022/08/21 07:37:58;;;;;;;;;14.00;12.00;;;;;21.67;58.32;99946.22;5094704;28;8978;-63
2022/08/21 07:40:26;;;;;;;;;15.60;14.80;;;;;21.64;58.49;99941.13;5094914;28;8850;-63
2022/08/21 07:42:54;;;;;;;;;11.40;11.40;;;;;21.62;58.35;99948.63;5094907;28;8984;-64
2022/08/21 07:45:24;;;;;;;;;13.20;11.80;;;;;21.62;58.52;99948.63;5094958;28;8830;-63
2022/08/21 07:47:52;;;;;;;;;12.80;12.80;;;;;21.67;58.39;99942.66;5095377;28;9104;-63
2022/08/21 07:50:24;;;;;;;;;8.40;7.40;;;;;21.74;58.32;99938.13;5094767;28;8948;-64
2022/08/21 07:52:52;;;;;;;;;14.40;12.80;;;;;21.83;58.04;99940.53;5094911;28;8956;-63
2022/08/21 07:55:19;;;;;;;;;11.40;10.80;;;;;22.00;57.72;99935.69;5094865;28;8960;-63
2022/08/21 07:57:48;;;;;;;;;6.20;6.20;;;;;22.11;57.30;99927.00;5076878;28;8812;-67
2022/08/21 08:00:15;;;;;;;;;10.40;8.80;;;;;22.23;57.74;99933.59;5074692;28;8914;-64
2022/08/21 08:02:43;;;;;;;;;8.00;8.00;;;;;22.34;57.15;99928.47;5074921;28;8860;-68
2022/08/21 08:05:11;;;;;;;;;12.40;11.40;;;;;22.47;57.30;99935.91;5074193;28;8828;-64
2022/08/21 08:07:39;;;;;;;;;13.80;13.00;;;;;22.50;56.83;99927.34;5073989;28;8848;-63
2022/08/21 08:10:07;;;;;;;;;9.00;9.00;;;;;22.54;56.98;99939.50;5074066;28;8840;-64
2022/08/21 08:12:35;;;;;;;;;9.80;9.00;;;;;22.57;57.08;99933.66;5074119;28;8870;-63
2022/08/21 08:15:03;;;;;;;;;8.00;8.00;;;;;22.67;56.72;99928.69;5074045;28;8966;-64
2022/08/21 08:17:32;;;;;;;;;12.20;11.00;;;;;22.70;56.93;99929.16;5073518;28;8840;-63
2022/08/21 08:20:00;;;;;;;;;10.20;10.20;;;;;22.74;56.34;99929.59;5073410;28;8866;-64
2022/08/21 08:22:28;;;;;;;;;11.60;9.60;;;;;22.79;56.09;99922.53;5073434;28;8852;-63
2022/08/21 08:24:56;;;;;;;;;10.00;8.40;;;;;22.87;56.03;99921.53;5073275;28;8836;-64
2022/08/21 08:27:24;;;;;;;;;9.00;8.00;;;;;22.92;56.14;99916.34;5085113;28;8937;-64
2022/08/21 08:29:52;;;;;;;;;7.80;7.80;;;;;23.00;55.89;99916.16;5089064;28;8921;-63
2022/08/21 08:32:20;;;;;;;;;12.00;11.60;;;;;23.05;55.98;99921.81;5094977;28;8880;-64
2022/08/21 08:34:48;;;;;;;;;6.80;6.80;;;;;23.14;55.85;99910.56;5094648;28;8868;-63
2022/08/21 08:37:16;;;;;;;;;10.00;9.60;;;;;23.22;55.89;99915.84;5093688;28;8957;-63
2022/08/21 08:39:44;;;;;;;;;10.00;10.00;;;;;23.22;55.69;99917.75;5082581;28;9657;-63
2022/08/21 08:42:14;;;;;;;;;13.60;11.00;;;;;23.32;55.40;99919.06;5093834;28;8834;-64
2022/08/21 08:45:00;;;;;;;;;9.40;9.20;;;;;23.51;55.49;99912.00;5094055;28;8968;-63
2022/08/21 08:47:28;;;;;;;;;11.80;10.00;;;;;23.63;54.57;99918.50;5094162;28;8833;-63
2022/08/21 08:49:58;;;;;;;;;9.60;9.60;;;;;23.58;54.33;99919.13;5097479;28;9877;-63
2022/08/21 08:52:25;;;;;;;;;10.00;10.00;;;;;23.47;55.33;99913.44;5097027;28;8992;-63
2022/08/21 08:54:53;;;;;;;;;10.60;8.80;;;;;23.41;55.09;99925.13;5096298;28;8872;-63
2022/08/21 08:57:21;;;;;;;;;10.00;9.60;;;;;23.39;55.36;99919.06;5096491;28;8837;-63
2022/08/21 08:59:49;;;;;;;;;9.20;9.00;;;;;23.39;55.24;99919.91;5091964;28;8813;-63
2022/08/21 09:02:20;;;;;;;;;9.00;8.60;;;;;23.39;55.08;99927.22;5082550;28;8832;-63
2022/08/21 09:04:48;;;;;;;;;5.00;5.00;;;;;23.43;55.30;99912.19;5075747;28;8968;-63
2022/08/21 09:07:16;;;;;;;;;4.40;3.20;;;;;23.43;55.12;99909.47;5075986;28;8824;-63
2022/08/21 09:09:44;;;;;;;;;5.20;5.00;;;;;23.51;54.81;99912.81;5076234;28;8990;-62
2022/08/21 09:12:12;;;;;;;;;6.00;6.00;;;;;23.53;54.52;99904.47;5076743;28;8828;-63
2022/08/21 09:14:40;;;;;;;;;8.20;6.00;;;;;23.62;54.44;99906.78;5077992;28;8982;-63
2022/08/21 09:17:08;;;;;;;;;7.00;6.00;;;;;23.71;54.05;99907.41;5077750;28;8839;-63
2022/08/21 09:19:36;;;;;;;;;7.40;7.20;;;;;23.70;53.81;99895.72;5077121;28;8854;-65
2022/08/21 09:22:04;;;;;;;;;6.80;6.00;;;;;23.82;53.24;99904.94;5076886;28;8830;-65
2022/08/21 09:24:32;;;;;;;;;10.60;10.60;;;;;23.95;53.46;99902.25;5091587;28;8940;-62
2022/08/21 09:27:00;;;;;;;;;9.20;9.20;;;;;24.12;52.88;99899.97;5096408;28;8907;-63
2022/08/21 09:29:29;;;;;;;;;9.60;9.00;;;;;24.32;52.22;99892.59;5096050;28;8867;-63
2022/08/21 09:31:57;;;;;;;;;10.00;10.00;;;;;24.31;52.06;99894.50;5078354;28;8846;-63
2022/08/21 09:34:24;;;;;;;;;13.20;10.00;;;;;24.28;52.31;99894.09;5095860;28;8830;-63
2022/08/21 09:36:52;;;;;;;;;9.20;9.20;;;;;24.19;52.38;99898.09;5078647;28;8960;-63
2022/08/21 09:39:20;;;;;;;;;10.00;10.00;;;;;24.33;51.80;99892.41;5097233;28;8981;-63
2022/08/21 09:41:49;;;;;;;;;10.60;10.00;;;;;24.61;51.50;99889.47;5096792;28;8954;-64
2022/08/21 09:44:16;;;;;;;;;8.60;8.60;;;;;24.85;51.07;99886.03;5097145;28;8988;-62
2022/08/21 09:46:45;;;;;;;;;9.60;9.40;;;;;25.28;50.86;99881.69;5096467;28;8846;-63
2022/08/21 09:49:14;;;;;;;;;10.80;10.40;;;;;25.64;50.43;99877.28;5095698;28;8842;-62
2022/08/21 09:51:42;;;;;;;;;8.60;8.20;;;;;25.95;48.63;99880.03;5096030;28;8851;-63
2022/08/21 09:54:10;;;;;;;;;6.40;6.40;;;;;26.19;48.64;99877.28;5084242;28;8946;-63
2022/08/21 09:59:24;;;;;;;;;7.00;7.00;;;;;27.21;46.98;99877.50;5074587;28;9022;-62
2022/08/21 10:01:51;;;;;;;;;7.00;7.00;;;;;27.87;45.82;99875.50;5075258;28;8864;-62
2022/08/21 10:04:19;;;;;;;;;8.00;7.20;;;;;28.46;44.59;99873.44;5076446;28;9862;-62
2022/08/21 10:06:47;;;;;;;;;6.40;6.40;;;;;28.89;44.26;99875.81;5075680;28;8834;-62
2022/08/21 10:09:15;;;;;;;;;6.80;6.00;;;;;29.29;43.58;99872.00;5075898;28;8836;-62
2022/08/21 10:11:47;;;;;;;;;3.80;3.20;;;;;29.72;42.96;99869.59;5075919;28;8831;-62
2022/08/21 10:14:15;;;;;;;;;4.00;3.80;;;;;30.08;42.03;99863.66;5076211;28;8966;-62
2022/08/21 10:16:43;;;;;;;;;4.00;4.00;;;;;30.18;42.78;99869.31;5075986;28;8854;-63
2022/08/21 10:19:11;;;;;;;;;3.40;3.40;;;;;30.29;41.81;99865.66;5076032;28;8843;-61
2022/08/21 10:21:38;;;;;;;;;3.60;3.40;;;;;30.12;42.19;99864.81;5075447;28;9518;-63
2022/08/21 10:24:06;;;;;;;;;4.00;4.00;;;;;29.95;42.69;99863.13;5085630;28;8802;-62
2022/08/21 10:26:37;;;;;;;;;3.40;3.00;;;;;30.10;42.36;99860.69;5096543;28;8960;-63
2022/08/21 10:29:05;;;;;;;;;3.00;3.00;;;;;30.31;41.53;99866.25;5096446;28;8852;-62
2022/08/21 10:31:33;;;;;;;;;3.80;3.80;;;;;30.58;41.82;99858.13;5096341;28;8957;-63
2022/08/21 10:34:00;;;;;;;;;3.00;3.00;;;;;30.82;40.93;99847.50;5096339;28;8875;-63
2022/08/21 10:36:30;;;;;;;;;3.00;3.00;;;;;30.96;41.13;99853.47;5093572;28;8840;-63
2022/08/21 10:38:59;;;;;;;;;4.20;4.00;;;;;31.35;40.17;99855.06;5075971;28;8840;-63
2022/08/21 10:41:46;;;;;;;;;4.00;3.40;;;;;31.76;40.12;99859.94;5074790;28;8836;-63
2022/08/21 10:44:14;;;;;;;;;3.40;3.00;;;;;32.14;39.66;99852.31;5075322;28;8974;-67
2022/08/21 10:46:42;;;;;;;;;5.00;4.20;;;;;32.57;38.50;99854.84;5076134;28;8958;-63
2022/08/21 10:49:10;;;;;;;;;2.00;2.00;;;;;32.72;38.39;99857.72;5075340;28;8836;-63
2022/08/21 10:51:37;;;;;;;;;0.00;0.00;;;;;33.04;37.66;99854.84;5076295;28;8836;-64
2022/08/21 10:54:05;;;;;;;;;2.00;2.00;;;;;33.35;37.59;99840.06;5075741;28;8859;-62
2022/08/21 10:56:33;;;;;;;;;3.60;3.20;;;;;33.66;36.34;99850.13;5074849;28;8839;-63
2022/08/21 10:59:01;;;;;;;;;2.80;2.80;;;;;33.53;37.21;99836.81;5056415;28;9821;-63
2022/08/21 11:01:29;;;;;;;;;3.40;3.20;;;;;33.63;36.90;99843.19;5073288;28;8982;-62
2022/08/21 11:03:56;;;;;;;;;3.00;3.00;;;;;33.97;36.75;99838.81;5074219;28;9675;-64
2022/08/21 11:06:26;;;;;;;;;3.80;3.80;;;;;34.27;36.16;99829.75;5075546;28;8832;-63
2022/08/21 11:08:56;;;;;;;;;3.60;3.60;;;;;34.38;35.78;99836.91;5074377;28;8929;-63
2022/08/21 11:11:24;;;;;;;;;3.60;3.00;;;;;34.74;35.55;99831.03;5073928;28;8911;-64
2022/08/21 11:13:56;;;;;;;;;2.20;2.00;;;;;34.92;35.49;99837.91;5074797;28;8979;-62
2022/08/21 11:16:23;;;;;;;;;2.80;2.40;;;;;35.18;34.58;99828.38;5075199;28;8859;-63
2022/08/21 11:18:51;;;;;;;;;3.00;3.00;;;;;35.57;34.73;99821.78;5074722;28;8982;-63
2022/08/21 11:21:19;;;;;;;;;3.80;3.00;;;;;36.01;34.00;99821.78;5073863;28;8867;-63
2022/08/21 11:23:47;;;;;;;;;4.20;4.00;;;;;36.03;33.58;99821.19;5074765;28;8903;-63
2022/08/21 11:26:15;;;;;;;;;2.20;2.20;;;;;36.22;33.51;99828.84;5074274;28;8832;-63
2022/08/21 11:28:43;;;;;;;;;4.00;3.40;;;;;36.56;33.56;99830.44;5074050;28;8828;-63
2022/08/21 11:31:12;;;;;;;;;3.20;3.00;;;;;36.65;32.93;99837.03;5074631;28;9843;-62
2022/08/21 11:33:41;;;;;;;;;4.00;3.00;;;;;36.77;32.48;99835.50;5074322;28;9529;-64
2022/08/21 11:36:09;;;;;;;;;3.80;3.60;;;;;37.10;32.28;99830.97;5075154;28;8843;-65
2022/08/21 11:38:38;;;;;;;;;0.40;0.40;;;;;37.30;31.78;99833.47;5075291;28;8982;-64
2022/08/21 11:41:06;;;;;;;;;2.80;2.20;;;;;37.31;32.18;99827.59;5074144;28;8994;-64